Time;durP1;ratioP1;P1;durP2;ratioP2;P2;SDS_P1;SDS_P2;PMS_P1;PMS_P2;Temp;Humidity;BMP_temperature;BMP_pressure;BME280_temperature;BME280_humidity;BME280_pressure;Samples;Min_cycle;Max_cycle;Signal;HPM_P1;HPM_P2
2023/04/13 00:01:27;;;;;;;1.08;0.30;;;6.90;99.90;;;;;;5030015;28;20052;-77
2023/04/13 00:03:53;;;;;;;4.10;0.30;;;6.90;99.90;;;;;;5007109;28;20040;-79
2023/04/13 00:06:21;;;;;;;1.52;0.40;;;6.90;99.90;;;;;;5011229;28;20028;-78
2023/04/13 00:08:47;;;;;;;3.00;0.20;;;6.90;99.90;;;;;;5009388;28;20032;-79
2023/04/13 00:11:14;;;;;;;2.45;0.40;;;6.90;99.90;;;;;;5026501;28;20073;-78
2023/04/13 00:13:41;;;;;;;2.97;0.40;;;6.90;99.90;;;;;;5040912;28;20045;-80
2023/04/13 00:16:09;;;;;;;2.65;0.43;;;6.90;99.90;;;;;;5008400;28;20032;-80
2023/04/13 00:18:35;;;;;;;3.28;0.32;;;6.90;99.90;;;;;;5028430;28;20422;-79
2023/04/13 00:21:02;;;;;;;1.70;0.30;;;6.90;99.90;;;;;;5009881;28;20045;-78
2023/04/13 00:23:28;;;;;;;1.90;0.32;;;6.90;99.90;;;;;;5004133;28;20776;-78
2023/04/13 00:25:55;;;;;;;3.13;0.40;;;6.90;99.90;;;;;;5026134;28;20143;-80
2023/04/13 00:28:23;;;;;;;2.30;0.40;;;6.90;99.90;;;;;;5047647;28;20037;-79
2023/04/13 00:30:51;;;;;;;3.13;0.43;;;6.90;99.90;;;;;;5028079;28;20021;-81
2023/04/13 00:33:17;;;;;;;1.55;0.20;;;6.90;99.90;;;;;;5008112;28;20068;-81
2023/04/13 00:35:44;;;;;;;6.07;0.30;;;6.90;99.90;;;;;;5026279;28;20039;-80
2023/04/13 00:38:10;;;;;;;1.42;0.30;;;6.90;99.90;;;;;;5025872;28;20051;-80
2023/04/13 00:40:36;;;;;;;2.20;0.30;;;7.00;99.90;;;;;;5009341;28;20032;-81
2023/04/13 00:43:04;;;;;;;2.78;0.40;;;7.00;99.90;;;;;;5008258;28;20480;-80
2023/04/13 00:45:37;;;;;;;1.65;0.38;;;7.00;99.90;;;;;;5021704;28;20418;-80
2023/04/13 00:48:06;;;;;;;3.88;0.25;;;7.00;99.90;;;;;;5012128;28;20482;-80
2023/04/13 00:50:33;;;;;;;2.45;0.30;;;7.00;99.90;;;;;;5011652;28;20329;-81
2023/04/13 00:53:00;;;;;;;1.33;0.28;;;7.00;99.90;;;;;;4994690;28;20387;-77
2023/04/13 00:55:27;;;;;;;2.10;0.55;;;7.00;99.90;;;;;;5007599;28;20020;-79
2023/04/13 00:57:54;;;;;;;3.83;0.65;;;7.00;99.90;;;;;;5028246;28;20048;-81
2023/04/13 01:00:23;;;;;;;2.35;0.40;;;6.90;99.90;;;;;;5028239;28;20040;-80
2023/04/13 01:02:51;;;;;;;1.38;0.30;;;6.90;99.90;;;;;;4994042;28;20622;-79
2023/04/13 01:05:18;;;;;;;3.45;0.40;;;6.90;99.90;;;;;;5007595;28;20470;-82
2023/04/13 01:08:13;;;;;;;4.82;0.50;;;6.90;99.90;;;;;;5012318;28;20040;-80
2023/04/13 01:10:40;;;;;;;1.92;0.40;;;6.90;99.90;;;;;;5010924;28;20047;-81
2023/04/13 01:13:09;;;;;;;5.97;0.40;;;6.90;99.90;;;;;;4989815;28;20071;-82
2023/04/13 01:15:44;;;;;;;3.30;0.40;;;6.90;99.90;;;;;;5006503;28;20047;-82
2023/04/13 01:18:16;;;;;;;1.48;0.40;;;6.80;99.90;;;;;;4993199;28;20033;-82
2023/04/13 01:20:45;;;;;;;1.60;0.40;;;6.80;99.90;;;;;;5025091;28;20049;-81
2023/04/13 01:23:45;;;;;;;3.70;0.60;;;6.80;99.90;;;;;;5011965;28;20067;-81
2023/04/13 01:26:12;;;;;;;2.22;0.40;;;6.80;99.90;;;;;;5046697;28;20503;-81
2023/04/13 01:28:39;;;;;;;1.90;0.40;;;6.80;99.90;;;;;;5010918;28;20185;-80
2023/04/13 01:31:10;;;;;;;1.38;0.40;;;6.80;99.90;;;;;;5011789;28;20024;-80
2023/04/13 01:33:39;;;;;;;2.85;0.40;;;6.80;99.90;;;;;;5022115;28;20044;-83
2023/04/13 01:36:09;;;;;;;2.85;0.43;;;6.80;99.90;;;;;;5010239;28;20032;-83
2023/04/13 01:38:36;;;;;;;3.40;0.40;;;6.80;99.90;;;;;;5026874;28;21034;-83
2023/04/13 01:41:04;;;;;;;3.65;0.50;;;6.80;99.90;;;;;;5022077;28;20024;-80
2023/04/13 01:43:34;;;;;;;2.80;0.45;;;6.80;99.90;;;;;;4989374;28;20033;-83
2023/04/13 01:46:15;;;;;;;3.70;0.70;;;6.80;99.90;;;;;;5008553;28;20024;-82
2023/04/13 01:49:03;;;;;;;5.20;0.50;;;6.80;99.90;;;;;;5025301;28;20396;-83
2023/04/13 01:52:01;;;;;;;2.45;0.70;;;6.80;99.90;;;;;;4999290;28;20032;-82
2023/04/13 01:54:32;;;;;;;2.25;0.60;;;6.80;99.90;;;;;;5003718;28;20039;-83
2023/04/13 01:57:00;;;;;;;3.28;0.80;;;6.80;99.90;;;;;;5012900;28;20430;-85
2023/04/13 01:59:27;;;;;;;3.78;0.68;;;6.80;99.90;;;;;;5014157;28;20027;-83
2023/04/13 02:01:54;;;;;;;3.15;0.60;;;6.80;99.90;;;;;;5010908;28;20476;-81
2023/04/13 02:04:21;;;;;;;3.72;0.65;;;6.90;99.90;;;;;;5022298;28;20391;-84
2023/04/13 02:06:50;;;;;;;6.03;0.60;;;6.80;99.90;;;;;;5028037;28;20040;-84
2023/04/13 02:09:21;;;;;;;2.50;0.63;;;6.90;99.90;;;;;;5012529;28;20620;-83
2023/04/13 02:11:53;;;;;;;4.25;0.50;;;6.90;99.90;;;;;;5011593;28;20049;-81
2023/04/13 02:14:19;;;;;;;4.70;0.57;;;6.90;99.90;;;;;;5002723;28;20033;-82
2023/04/13 02:16:46;;;;;;;2.50;0.50;;;6.90;99.90;;;;;;5027872;28;20040;-80
2023/04/13 02:19:13;;;;;;;3.58;0.60;;;6.90;99.90;;;;;;5009597;28;20043;-83
2023/04/13 02:21:40;;;;;;;4.43;0.60;;;6.90;99.90;;;;;;5009095;28;20037;-79
2023/04/13 02:24:07;;;;;;;3.10;0.60;;;7.00;99.90;;;;;;5018565;28;20028;-80
2023/04/13 02:26:36;;;;;;;4.07;0.60;;;6.90;99.90;;;;;;5025584;28;20043;-83
2023/04/13 02:29:02;;;;;;;3.08;0.60;;;7.00;99.90;;;;;;5026298;28;20033;-81
2023/04/13 02:31:30;;;;;;;4.38;0.65;;;7.00;99.90;;;;;;5024655;28;20044;-82
2023/04/13 02:33:57;;;;;;;6.95;0.60;;;7.00;99.90;;;;;;5002509;28;20425;-80
2023/04/13 02:36:23;;;;;;;3.28;0.52;;;7.00;99.90;;;;;;5013779;28;20036;-83
2023/04/13 02:38:57;;;;;;;4.22;0.75;;;7.00;99.90;;;;;;5011311;28;20036;-84
2023/04/13 02:41:32;;;;;;;5.03;1.00;;;7.00;99.90;;;;;;5029252;28;20040;-83
2023/04/13 02:43:58;;;;;;;3.22;0.63;;;7.00;99.90;;;;;;5008876;28;20048;-83
2023/04/13 02:46:27;;;;;;;5.65;0.80;;;7.10;99.90;;;;;;5012870;28;20464;-81
2023/04/13 02:49:13;;;;;;;6.25;0.88;;;7.00;99.90;;;;;;5012044;28;20039;-85
2023/04/13 02:51:51;;;;;;;5.38;0.90;;;7.00;99.90;;;;;;5048694;28;20036;-85
2023/04/13 02:54:19;;;;;;;4.03;0.60;;;7.10;99.90;;;;;;5006653;28;20044;-80
2023/04/13 02:56:48;;;;;;;5.45;0.85;;;7.10;99.90;;;;;;5016666;28;20388;-85
2023/04/13 02:59:15;;;;;;;7.55;0.82;;;7.10;99.90;;;;;;5016288;28;21155;-84
2023/04/13 03:01:44;;;;;;;5.07;0.70;;;7.10;99.90;;;;;;5030354;28;20375;-84
2023/04/13 03:04:11;;;;;;;4.00;0.63;;;7.10;99.90;;;;;;5022862;28;20040;-80
2023/04/13 03:06:37;;;;;;;3.65;0.80;;;7.10;99.90;;;;;;5030364;28;20414;-84
2023/04/13 03:09:04;;;;;;;8.55;0.90;;;7.10;99.90;;;;;;5016441;28;20047;-80
2023/04/13 03:11:40;;;;;;;4.53;0.82;;;7.10;99.90;;;;;;5029218;28;20311;-80
2023/04/13 03:14:19;;;;;;;5.18;0.68;;;7.10;99.90;;;;;;5006944;28;20047;-80
2023/04/13 03:16:47;;;;;;;6.57;1.10;;;7.00;99.90;;;;;;5047625;28;20036;-81
2023/04/13 03:19:15;;;;;;;3.47;0.90;;;7.10;99.90;;;;;;4996593;28;20491;-83
2023/04/13 03:21:44;;;;;;;2.47;0.80;;;7.00;99.90;;;;;;5012715;28;20045;-83
2023/04/13 03:24:14;;;;;;;4.05;0.95;;;7.00;99.90;;;;;;5007703;28;20044;-80
2023/04/13 03:26:40;;;;;;;3.40;1.40;;;6.90;99.90;;;;;;5028547;28;20036;-81
2023/04/13 03:29:11;;;;;;;3.90;1.13;;;6.90;99.90;;;;;;5011075;28;20032;-80
2023/04/13 03:31:41;;;;;;;5.47;1.10;;;6.90;99.90;;;;;;5013538;28;20036;-82
2023/04/13 03:34:08;;;;;;;4.03;1.10;;;6.90;99.90;;;;;;5006650;28;20044;-83
2023/04/13 03:36:36;;;;;;;6.43;1.10;;;6.80;99.90;;;;;;5014623;28;20475;-83
2023/04/13 03:39:04;;;;;;;4.68;0.93;;;6.70;99.90;;;;;;5011447;28;20033;-80
2023/04/13 03:41:34;;;;;;;2.63;0.70;;;6.70;99.90;;;;;;5015608;28;20055;-80
2023/04/13 03:44:01;;;;;;;5.03;1.30;;;6.70;99.90;;;;;;5021007;28;20041;-81
2023/04/13 03:46:30;;;;;;;4.32;1.10;;;6.60;99.90;;;;;;5030020;28;20037;-80
2023/04/13 03:48:59;;;;;;;2.60;0.90;;;6.50;99.90;;;;;;5031530;28;20037;-79
2023/04/13 03:51:28;;;;;;;3.80;0.95;;;6.50;99.90;;;;;;5011810;28;20031;-80
2023/04/13 03:53:54;;;;;;;2.58;0.88;;;6.40;99.90;;;;;;5006190;28;20050;-83
2023/04/13 03:56:24;;;;;;;4.35;0.95;;;6.30;99.90;;;;;;5012242;28;20033;-79
2023/04/13 03:58:54;;;;;;;2.45;1.10;;;6.20;99.90;;;;;;5030372;28;20356;-79
2023/04/13 04:01:25;;;;;;;3.45;1.23;;;6.20;99.90;;;;;;5016067;28;20028;-80
2023/04/13 04:03:55;;;;;;;3.90;1.30;;;6.10;99.90;;;;;;5047928;28;20037;-81
2023/04/13 04:06:22;;;;;;;3.88;1.67;;;6.10;99.90;;;;;;5020316;28;20028;-79
2023/04/13 04:08:56;;;;;;;3.83;1.45;;;6.10;99.90;;;;;;5015222;28;20028;-79
2023/04/13 04:11:37;;;;;;;4.25;1.60;;;6.00;99.90;;;;;;5030136;28;20041;-82
2023/04/13 04:14:05;;;;;;;3.88;1.23;;;6.00;99.90;;;;;;5022566;28;20480;-78
2023/04/13 04:16:32;;;;;;;3.03;1.30;;;5.90;99.90;;;;;;5010810;28;20478;-80
2023/04/13 04:19:07;;;;;;;5.90;1.10;;;5.90;99.90;;;;;;5011305;28;20083;-79
2023/04/13 04:21:34;;;;;;;4.68;1.25;;;5.90;99.90;;;;;;5042818;28;20416;-80
2023/04/13 04:24:07;;;;;;;2.83;1.15;;;5.90;99.90;;;;;;5021443;28;20025;-82
2023/04/13 04:26:36;;;;;;;4.13;1.20;;;5.90;99.90;;;;;;5009978;28;20495;-78
2023/04/13 04:29:03;;;;;;;5.60;1.70;;;6.00;99.90;;;;;;5016361;28;20510;-78
2023/04/13 04:31:33;;;;;;;5.72;2.05;;;5.90;99.90;;;;;;5014988;28;20980;-78
2023/04/13 04:34:02;;;;;;;5.28;1.90;;;5.90;99.90;;;;;;5007375;28;20475;-82
2023/04/13 04:36:32;;;;;;;5.85;1.67;;;5.90;99.90;;;;;;5029129;28;20396;-83
2023/04/13 04:39:01;;;;;;;5.18;1.67;;;6.00;99.90;;;;;;5028426;28;20075;-80
2023/04/13 04:41:29;;;;;;;6.95;1.95;;;6.10;99.90;;;;;;5013117;28;20046;-81
2023/04/13 04:44:01;;;;;;;5.65;2.00;;;6.10;99.90;;;;;;5006979;28;20494;-83
2023/04/13 04:46:30;;;;;;;6.20;2.13;;;6.10;99.90;;;;;;5012391;28;20040;-81
2023/04/13 04:49:02;;;;;;;6.93;3.03;;;6.10;99.90;;;;;;5009972;28;20431;-80
2023/04/13 04:51:29;;;;;;;7.53;4.47;;;6.00;99.90;;;;;;5028533;28;20029;-81
2023/04/13 04:53:57;;;;;;;18.52;7.93;;;6.00;99.90;;;;;;5005997;28;20052;-82
2023/04/13 04:56:24;;;;;;;13.63;6.32;;;6.00;99.90;;;;;;5026188;28;20037;-82
2023/04/13 04:58:53;;;;;;;9.30;3.47;;;6.00;99.90;;;;;;5024384;28;20464;-80
2023/04/13 05:01:25;;;;;;;6.90;3.17;;;6.00;99.90;;;;;;5011587;28;20041;-80
2023/04/13 05:03:56;;;;;;;7.18;3.10;;;6.00;99.90;;;;;;5004688;28;20036;-82
2023/04/13 05:06:33;;;;;;;7.07;2.67;;;6.10;99.90;;;;;;5012539;28;20385;-80
2023/04/13 05:09:03;;;;;;;7.97;3.92;;;6.10;99.90;;;;;;5029001;28;20483;-82
2023/04/13 05:11:31;;;;;;;9.27;4.68;;;6.10;99.90;;;;;;5011292;28;20024;-81
2023/04/13 05:14:00;;;;;;;8.23;4.35;;;6.20;99.90;;;;;;5003622;28;20041;-81
2023/04/13 05:16:29;;;;;;;9.77;5.28;;;6.20;99.90;;;;;;5026298;28;20037;-80
2023/04/13 05:18:57;;;;;;;10.50;4.68;;;6.30;99.90;;;;;;5011278;28;20236;-81
2023/04/13 05:22:01;;;;;;;8.88;4.85;;;6.30;99.90;;;;;;5024767;28;20605;-80
2023/04/13 05:24:32;;;;;;;11.00;4.93;;;6.50;99.90;;;;;;5003806;28;20032;-82
2023/04/13 05:27:01;;;;;;;10.73;6.55;;;6.50;99.90;;;;;;5010508;28;20029;-81
2023/04/13 05:29:27;;;;;;;11.82;6.85;;;6.50;99.90;;;;;;4994441;28;20059;-80
2023/04/13 05:31:57;;;;;;;11.27;7.13;;;6.60;99.90;;;;;;4995291;28;20032;-83
2023/04/13 05:34:24;;;;;;;11.13;7.72;;;6.60;99.90;;;;;;5003911;28;20041;-81
2023/04/13 05:37:07;;;;;;;14.02;8.30;;;6.70;99.90;;;;;;5014033;28;20063;-80
2023/04/13 05:39:33;;;;;;;18.58;8.95;;;6.80;99.90;;;;;;4996235;28;21136;-82
2023/04/13 05:42:00;;;;;;;13.43;7.88;;;6.80;99.90;;;;;;5028047;28;20035;-81
2023/04/13 05:44:29;;;;;;;19.25;9.85;;;6.90;99.90;;;;;;5003573;28;20108;-83
2023/04/13 05:46:55;;;;;;;18.92;10.02;;;7.10;99.90;;;;;;4993316;28;20102;-80
2023/04/13 05:49:22;;;;;;;17.25;10.20;;;7.10;99.90;;;;;;4995553;28;20033;-79
2023/04/13 05:51:50;;;;;;;21.23;10.55;;;7.20;99.90;;;;;;5012718;28;20040;-81
2023/04/13 05:54:17;;;;;;;17.33;9.65;;;7.30;99.90;;;;;;5005303;28;20044;-81
2023/04/13 05:56:47;;;;;;;18.40;10.20;;;7.30;99.90;;;;;;5012802;28;20036;-80
2023/04/13 05:59:15;;;;;;;19.40;11.35;;;7.40;99.90;;;;;;5010293;28;20037;-80
2023/04/13 06:01:41;;;;;;;20.58;10.75;;;7.40;99.90;;;;;;4996120;28;20037;-81
2023/04/13 06:04:10;;;;;;;15.07;9.15;;;7.50;99.90;;;;;;5020875;28;20502;-80
2023/04/13 06:06:36;;;;;;;18.63;10.00;;;7.70;99.90;;;;;;5012434;28;20048;-79
2023/04/13 06:09:05;;;;;;;16.17;9.02;;;7.80;99.90;;;;;;5005277;28;20024;-81
2023/04/13 06:11:31;;;;;;;22.58;11.57;;;7.80;99.90;;;;;;5028548;28;20032;-79
2023/04/13 06:13:58;;;;;;;18.35;9.52;;;7.80;99.90;;;;;;4994566;28;20056;-82
2023/04/13 06:16:25;;;;;;;16.98;8.45;;;7.80;99.90;;;;;;5015344;28;20496;-81
2023/04/13 06:18:51;;;;;;;16.13;8.63;;;7.80;99.90;;;;;;5014831;28;20028;-82
2023/04/13 06:21:17;;;;;;;14.43;7.95;;;7.80;99.90;;;;;;4997585;28;20052;-79
2023/04/13 06:23:46;;;;;;;15.63;8.63;;;7.70;99.90;;;;;;5010268;28;20032;-79
2023/04/13 06:26:25;;;;;;;16.83;8.40;;;7.70;99.90;;;;;;5016089;28;20664;-85
2023/04/13 06:28:55;;;;;;;17.17;9.10;;;7.70;99.90;;;;;;5030967;28;20032;-83
2023/04/13 06:31:26;;;;;;;16.60;8.80;;;7.60;99.90;;;;;;5013178;28;20424;-80
2023/04/13 06:33:53;;;;;;;18.05;9.48;;;7.60;99.90;;;;;;4992266;28;20128;-80
2023/04/13 06:36:24;;;;;;;18.23;11.20;;;7.60;99.90;;;;;;5012575;28;20029;-81
2023/04/13 06:38:53;;;;;;;19.27;11.05;;;7.60;99.90;;;;;;5042425;28;20275;-79
2023/04/13 06:41:20;;;;;;;19.08;11.10;;;7.60;99.90;;;;;;5009672;28;20037;-80
2023/04/13 06:43:48;;;;;;;16.90;9.82;;;7.60;99.90;;;;;;5022562;28;20534;-78
2023/04/13 06:46:24;;;;;;;18.50;8.80;;;7.60;99.90;;;;;;5013387;28;20048;-78
2023/04/13 06:48:53;;;;;;;14.63;8.30;;;7.50;99.90;;;;;;5030165;28;20025;-78
2023/04/13 06:51:23;;;;;;;12.32;6.55;;;7.50;99.90;;;;;;5014721;28;20032;-78
2023/04/13 06:53:52;;;;;;;10.20;6.20;;;7.60;99.90;;;;;;5005971;28;20048;-78
2023/04/13 06:56:19;;;;;;;9.30;5.05;;;7.60;99.90;;;;;;5012039;28;20049;-78
2023/04/13 06:58:47;;;;;;;9.82;5.30;;;7.60;99.90;;;;;;5030060;28;20471;-77
2023/04/13 07:01:15;;;;;;;10.25;5.47;;;7.70;99.90;;;;;;5011324;28;20043;-78
2023/04/13 07:03:42;;;;;;;8.57;4.68;;;7.70;99.90;;;;;;5005285;28;20095;-79
2023/04/13 07:06:09;;;;;;;10.88;5.53;;;7.70;99.90;;;;;;5027668;28;20040;-80
2023/04/13 07:08:36;;;;;;;15.60;6.47;;;7.60;99.90;;;;;;5014776;28;20041;-79
2023/04/13 07:11:03;;;;;;;11.55;6.00;;;7.60;99.90;;;;;;5027065;28;20884;-81
2023/04/13 07:13:39;;;;;;;12.45;7.22;;;7.60;99.90;;;;;;4999570;28;20061;-79
2023/04/13 07:16:08;;;;;;;11.27;6.20;;;7.60;99.90;;;;;;5027358;28;20032;-80
2023/04/13 07:18:37;;;;;;;9.82;6.18;;;7.60;99.90;;;;;;5013047;28;20052;-80
2023/04/13 07:21:04;;;;;;;12.10;5.28;;;7.60;99.90;;;;;;5013271;28;20052;-80
2023/04/13 07:23:41;;;;;;;10.60;5.88;;;7.50;99.90;;;;;;5026613;28;20041;-81
2023/04/13 07:26:13;;;;;;;8.23;4.45;;;7.50;99.90;;;;;;5030022;28;20498;-78
2023/04/13 07:28:40;;;;;;;9.77;4.17;;;7.50;99.90;;;;;;5025735;28;20044;-79
2023/04/13 07:31:07;;;;;;;13.05;6.10;;;7.50;99.90;;;;;;5011489;28;20279;-77
2023/04/13 07:33:34;;;;;;;11.00;5.95;;;7.50;99.90;;;;;;5011942;28;20170;-78
2023/04/13 07:36:00;;;;;;;8.00;5.65;;;7.50;99.90;;;;;;5026602;28;20512;-79
2023/04/13 07:38:30;;;;;;;8.35;5.30;;;7.40;99.90;;;;;;5015651;28;20051;-80
2023/04/13 07:40:56;;;;;;;8.35;5.72;;;7.50;99.90;;;;;;5049633;28;20036;-79
2023/04/13 07:43:25;;;;;;;11.77;6.72;;;7.60;99.90;;;;;;5022930;28;20506;-79
2023/04/13 07:45:53;;;;;;;8.48;5.50;;;7.80;99.90;;;;;;5011311;28;20036;-79
2023/04/13 07:48:20;;;;;;;8.32;4.90;;;7.90;99.90;;;;;;5030445;28;20047;-79
2023/04/13 07:50:47;;;;;;;8.80;4.65;;;8.00;99.90;;;;;;5012004;28;20055;-79
2023/04/13 07:53:18;;;;;;;8.18;4.15;;;7.90;99.90;;;;;;5006288;28;20463;-79
2023/04/13 07:55:45;;;;;;;9.90;5.70;;;8.00;99.90;;;;;;5022253;28;20025;-81
2023/04/13 07:58:12;;;;;;;11.57;4.90;;;7.90;99.90;;;;;;5012319;28;20044;-79
2023/04/13 08:00:39;;;;;;;9.88;4.97;;;7.90;99.90;;;;;;5010826;28;20036;-77
2023/04/13 08:03:06;;;;;;;11.10;4.72;;;7.90;99.90;;;;;;5026091;28;20032;-81
2023/04/13 08:05:35;;;;;;;10.07;4.85;;;7.90;99.90;;;;;;5022825;28;20029;-78
2023/04/13 08:08:02;;;;;;;9.02;4.30;;;7.90;99.90;;;;;;4995752;28;20044;-79
2023/04/13 08:10:29;;;;;;;12.85;6.10;;;8.00;99.90;;;;;;5028042;28;20032;-80
2023/04/13 08:12:58;;;;;;;14.50;6.57;;;8.00;99.90;;;;;;5031746;28;20020;-80
2023/04/13 08:15:25;;;;;;;12.90;6.63;;;8.10;99.90;;;;;;5029143;28;20044;-79
2023/04/13 08:17:52;;;;;;;16.50;7.50;;;8.10;99.90;;;;;;5032306;28;20382;-79
2023/04/13 08:20:20;;;;;;;16.67;7.03;;;8.20;99.90;;;;;;5011749;28;20051;-80
2023/04/13 08:22:47;;;;;;;19.42;6.50;;;8.20;99.90;;;;;;5031045;28;20455;-79
2023/04/13 08:25:14;;;;;;;18.58;5.97;;;8.20;99.90;;;;;;5004448;28;20024;-79
2023/04/13 08:27:41;;;;;;;15.48;5.75;;;8.20;99.90;;;;;;5011020;28;20404;-81
2023/04/13 08:30:08;;;;;;;12.60;5.05;;;8.20;99.90;;;;;;5027255;28;20040;-81
2023/04/13 08:32:47;;;;;;;18.52;5.38;;;8.20;99.90;;;;;;5009465;28;20036;-83
2023/04/13 08:35:14;;;;;;;22.83;4.97;;;8.20;99.90;;;;;;5004751;28;20040;-77
2023/04/13 08:37:41;;;;;;;17.40;4.35;;;8.20;99.90;;;;;;5028676;28;20043;-80
2023/04/13 08:40:10;;;;;;;19.05;5.43;;;8.20;99.90;;;;;;5029856;28;20035;-79
2023/04/13 08:42:40;;;;;;;7.88;3.45;;;8.20;99.90;;;;;;5027716;28;20040;-81
2023/04/13 08:45:08;;;;;;;14.48;4.72;;;8.20;99.90;;;;;;4988784;28;20035;-83
2023/04/13 08:47:36;;;;;;;15.70;5.43;;;8.20;99.90;;;;;;5014357;28;20452;-80
2023/04/13 08:50:02;;;;;;;21.45;6.15;;;8.20;99.90;;;;;;5031214;28;20041;-80
2023/04/13 08:52:42;;;;;;;11.93;4.40;;;8.20;99.90;;;;;;5043612;28;20044;-79
2023/04/13 08:55:08;;;;;;;20.17;5.60;;;8.30;99.90;;;;;;5019821;28;20048;-81
2023/04/13 08:57:37;;;;;;;19.73;4.97;;;8.40;99.90;;;;;;5028934;28;20032;-80
2023/04/13 09:00:10;;;;;;;15.43;4.38;;;8.50;99.90;;;;;;5014683;28;20024;-80
2023/04/13 09:02:38;;;;;;;23.65;5.75;;;8.70;99.90;;;;;;5014386;28;20055;-80
2023/04/13 09:05:14;;;;;;;26.00;5.05;;;8.80;99.90;;;;;;5019050;28;20039;-79
2023/04/13 09:07:49;;;;;;;16.17;3.42;;;8.90;99.90;;;;;;5011383;28;20051;-79
2023/04/13 09:10:17;;;;;;;17.25;4.00;;;9.10;99.90;;;;;;5010835;28;20067;-81
2023/04/13 09:12:47;;;;;;;15.93;3.55;;;9.30;99.90;;;;;;5026138;28;20391;-81
2023/04/13 09:15:13;;;;;;;13.95;3.28;;;9.30;99.90;;;;;;5020280;28;20506;-81
2023/04/13 09:17:49;;;;;;;15.30;3.50;;;9.30;99.90;;;;;;5027654;28;20021;-79
2023/04/13 09:20:21;;;;;;;13.07;2.65;;;9.30;99.90;;;;;;5012009;28;20075;-79
2023/04/13 09:22:48;;;;;;;15.32;3.28;;;9.30;99.90;;;;;;5024098;28;20468;-81
2023/04/13 09:25:22;;;;;;;16.13;2.72;;;9.30;99.90;;;;;;5018542;28;20281;-80
2023/04/13 09:27:52;;;;;;;13.27;2.22;;;9.50;99.90;;;;;;5026795;28;20025;-79
2023/04/13 09:30:24;;;;;;;13.85;1.83;;;9.60;99.90;;;;;;5045346;28;20035;-80
2023/04/13 09:33:08;;;;;;;11.35;1.48;;;9.80;99.90;;;;;;5024466;28;20025;-80
2023/04/13 09:35:35;;;;;;;13.57;1.90;;;9.90;99.90;;;;;;5021121;28;20052;-79
2023/04/13 09:38:03;;;;;;;13.93;1.73;;;9.80;99.90;;;;;;5026249;28;20037;-79
2023/04/13 09:40:31;;;;;;;13.93;1.50;;;9.70;99.90;;;;;;5009179;28;20464;-81
2023/04/13 09:43:06;;;;;;;12.20;1.98;;;9.70;99.90;;;;;;5024154;28;20029;-81
2023/04/13 09:45:37;;;;;;;14.60;1.92;;;9.80;99.90;;;;;;5021407;28;20054;-79
2023/04/13 09:48:15;;;;;;;20.38;3.08;;;9.90;99.90;;;;;;5045477;28;20040;-81
2023/04/13 09:50:41;;;;;;;10.00;2.35;;;9.90;99.90;;;;;;5046405;28;20028;-83
2023/04/13 09:53:10;;;;;;;15.98;2.22;;;9.70;99.90;;;;;;5025873;28;20040;-83
2023/04/13 09:55:38;;;;;;;15.32;1.70;;;9.50;99.90;;;;;;5020992;28;20040;-81
2023/04/13 09:58:16;;;;;;;14.32;2.63;;;9.40;99.90;;;;;;5011814;28;20375;-83
2023/04/13 10:00:47;;;;;;;13.80;1.90;;;9.30;99.90;;;;;;5027708;28;20075;-81
2023/04/13 10:03:15;;;;;;;11.10;1.65;;;9.20;99.90;;;;;;5028193;28;20068;-83
2023/04/13 10:05:42;;;;;;;10.73;2.25;;;9.30;99.90;;;;;;5023881;28;20036;-80
2023/04/13 10:08:09;;;;;;;13.10;2.65;;;9.40;99.90;;;;;;5028120;28;20499;-87
2023/04/13 10:10:38;;;;;;;15.52;2.60;;;9.70;99.90;;;;;;5047412;28;20359;-79
2023/04/13 10:13:20;;;;;;;21.23;2.25;;;10.10;99.90;;;;;;5025933;28;20503;-82
2023/04/13 10:16:04;;;;;;;16.47;2.23;;;10.20;99.90;;;;;;5022183;28;20033;-80
2023/04/13 10:18:59;;;;;;;12.55;1.55;;;10.30;99.90;;;;;;5030320;28;20036;-82
2023/04/13 10:21:32;;;;;;;11.85;1.98;;;10.50;99.90;;;;;;5015693;28;20052;-83
2023/04/13 10:23:58;;;;;;;17.30;4.25;;;10.70;99.90;;;;;;5039868;28;20039;-80
2023/04/13 10:26:38;;;;;;;17.80;2.30;;;10.90;99.90;;;;;;5029185;28;20053;-78
2023/04/13 10:29:05;;;;;;;10.93;2.47;;;11.10;99.90;;;;;;5009479;28;20872;-79
2023/04/13 10:31:36;;;;;;;12.90;1.73;;;11.10;99.90;;;;;;5004405;28;20051;-84
2023/04/13 10:34:04;;;;;;;10.02;1.40;;;11.10;99.90;;;;;;5019836;28;20036;-83
2023/04/13 10:36:41;;;;;;;15.55;1.58;;;11.10;99.90;;;;;;5025650;28;20041;-81
2023/04/13 10:39:09;;;;;;;10.02;1.20;;;11.30;99.90;;;;;;5008097;28;20044;-82
2023/04/13 10:41:36;;;;;;;13.35;1.63;;;11.40;99.90;;;;;;5027413;28;20510;-80
2023/04/13 10:44:07;;;;;;;10.40;1.33;;;11.30;99.90;;;;;;5035844;28;20036;-82
2023/04/13 10:46:34;;;;;;;17.42;3.28;;;11.40;99.90;;;;;;5026287;28;20029;-83
2023/04/13 10:49:02;;;;;;;12.63;2.60;;;11.60;99.90;;;;;;5025710;28;20031;-80
2023/04/13 10:51:42;;;;;;;16.92;2.17;;;11.70;99.90;;;;;;5009055;28;20029;-80
2023/04/13 10:54:10;;;;;;;11.10;1.38;;;11.60;99.90;;;;;;5017814;28;20083;-82
2023/04/13 10:56:36;;;;;;;9.85;1.25;;;11.50;99.90;;;;;;5030642;28;20036;-84
2023/04/13 10:59:03;;;;;;;15.15;1.52;;;11.40;99.90;;;;;;5052202;28;20047;-85
2023/04/13 11:01:30;;;;;;;9.05;1.20;;;11.50;99.90;;;;;;5029578;28;20037;-87
2023/04/13 11:04:03;;;;;;;11.63;1.67;;;11.90;99.90;;;;;;5041820;28;20044;-81
2023/04/13 11:06:37;;;;;;;12.05;1.73;;;12.50;99.90;;;;;;5032213;28;20044;-84
2023/04/13 11:09:05;;;;;;;11.30;1.33;;;12.90;99.90;;;;;;5030587;28;20036;-81
2023/04/13 11:11:33;;;;;;;10.50;1.42;;;12.80;99.90;;;;;;5011427;28;20036;-81
2023/04/13 11:13:59;;;;;;;11.82;1.30;;;12.60;99.90;;;;;;5004828;28;20075;-80
2023/04/13 11:16:25;;;;;;;11.05;1.10;;;12.50;99.90;;;;;;5028647;28;20850;-81
2023/04/13 11:19:04;;;;;;;11.65;1.77;;;12.90;99.90;;;;;;5047929;28;20347;-81
2023/04/13 11:21:30;;;;;;;17.00;1.70;;;13.80;99.90;;;;;;5014213;28;20082;-80
2023/04/13 11:24:00;;;;;;;15.70;2.10;;;14.40;99.90;;;;;;5006654;28;20395;-81
2023/04/13 11:26:36;;;;;;;10.02;1.42;;;14.50;99.90;;;;;;5015002;28;20040;-82
2023/04/13 11:29:03;;;;;;;10.77;1.35;;;14.40;99.90;;;;;;5010779;28;20132;-81
2023/04/13 11:31:39;;;;;;;9.65;1.10;;;14.40;99.90;;;;;;5027811;28;20025;-82
2023/04/13 11:34:08;;;;;;;11.10;1.00;;;14.90;99.90;;;;;;5040629;28;20053;-82
2023/04/13 11:36:37;;;;;;;7.45;0.80;;;15.30;99.90;;;;;;5013844;28;20464;-81
2023/04/13 11:39:06;;;;;;;7.80;0.90;;;15.60;99.90;;;;;;5028747;28;20063;-82
2023/04/13 11:41:38;;;;;;;12.73;1.00;;;16.00;99.90;;;;;;5045742;28;20025;-80
2023/04/13 11:44:05;;;;;;;10.27;1.15;;;16.00;99.90;;;;;;5002878;28;20036;-80
2023/04/13 11:46:32;;;;;;;10.05;1.15;;;16.20;99.90;;;;;;5027109;28;20536;-79
2023/04/13 11:48:59;;;;;;;11.18;1.50;;;16.30;99.90;;;;;;5023997;28;20036;-79
2023/04/13 11:51:26;;;;;;;11.23;1.48;;;16.40;99.90;;;;;;5026445;28;20041;-80
2023/04/13 11:53:52;;;;;;;7.95;1.25;;;16.80;99.90;;;;;;5017305;28;20371;-79
2023/04/13 11:56:19;;;;;;;9.05;1.05;;;17.10;99.90;;;;;;5008828;28;20036;-79
2023/04/13 11:58:49;;;;;;;10.75;1.33;;;17.30;99.90;;;;;;5047128;28;20035;-79
2023/04/13 12:01:17;;;;;;;8.65;0.90;;;17.30;99.90;;;;;;5006925;28;20502;-80
2023/04/13 12:03:43;;;;;;;8.65;1.05;;;17.20;99.90;;;;;;5042692;28;20047;-79
2023/04/13 12:06:11;;;;;;;10.02;1.52;;;17.10;99.90;;;;;;5023506;28;20029;-80
2023/04/13 12:08:37;;;;;;;8.35;0.90;;;16.60;99.90;;;;;;5027980;28;20039;-80
2023/04/13 12:11:05;;;;;;;9.25;1.10;;;16.50;99.90;;;;;;5046343;28;20032;-80
2023/04/13 12:13:49;;;;;;;8.43;1.10;;;16.50;99.90;;;;;;5021819;28;20049;-80
2023/04/13 12:16:28;;;;;;;7.07;1.35;;;16.60;99.90;;;;;;5026318;28;20032;-81
2023/04/13 12:18:54;;;;;;;8.15;1.10;;;16.70;99.90;;;;;;5016553;28;20044;-81
2023/04/13 12:21:21;;;;;;;10.98;1.17;;;16.50;99.90;;;;;;5049905;28;20056;-80
2023/04/13 12:23:56;;;;;;;9.88;1.33;;;15.90;99.90;;;;;;5030475;28;20041;-81
2023/04/13 12:26:30;;;;;;;9.00;1.10;;;15.60;99.90;;;;;;5013399;28;20024;-80
2023/04/13 12:28:59;;;;;;;9.00;0.70;;;16.00;99.90;;;;;;5032018;28;20497;-82
2023/04/13 12:31:35;;;;;;;4.63;0.70;;;16.10;99.90;;;;;;5010620;28;20044;-81
2023/04/13 12:34:05;;;;;;;9.35;1.00;;;16.30;99.90;;;;;;5032115;28;20052;-80
2023/04/13 12:36:34;;;;;;;6.53;0.95;;;16.90;99.90;;;;;;5011999;28;20037;-81
2023/04/13 12:39:02;;;;;;;7.32;0.90;;;16.90;99.90;;;;;;5012411;28;20028;-81
2023/04/13 12:41:28;;;;;;;7.97;1.05;;;16.90;99.90;;;;;;5010192;28;20040;-81
2023/04/13 12:43:54;;;;;;;6.13;1.45;;;16.70;99.90;;;;;;5013402;28;20368;-81
2023/04/13 12:46:20;;;;;;;5.82;1.00;;;16.40;99.90;;;;;;5026439;28;20028;-83
2023/04/13 12:48:47;;;;;;;4.50;0.80;;;16.10;99.90;;;;;;5027593;28;20315;-80
2023/04/13 12:51:13;;;;;;;2.78;0.80;;;16.30;99.90;;;;;;5028581;28;20049;-80
2023/04/13 12:53:40;;;;;;;6.03;0.80;;;16.70;99.90;;;;;;5008426;28;20033;-79
2023/04/13 12:56:06;;;;;;;5.63;0.70;;;16.90;99.90;;;;;;5023053;28;20486;-80
2023/04/13 12:58:34;;;;;;;9.63;3.08;;;17.70;99.90;;;;;;5043404;28;20119;-80
2023/04/13 13:01:01;;;;;;;7.80;1.67;;;17.90;99.90;;;;;;5044465;28;20063;-80
2023/04/13 13:03:27;;;;;;;5.63;0.90;;;17.40;99.90;;;;;;5041658;28;20036;-80